createdAt,value
2022-10-05T00:01:23.901Z,4.90
2022-10-05T00:04:16.097Z,4.90
2022-10-05T00:07:10.074Z,4.80
2022-10-05T00:10:01.147Z,4.80
2022-10-05T00:12:50.407Z,4.80
2022-10-05T00:15:39.657Z,4.90
2022-10-05T00:18:28.427Z,4.90
2022-10-05T00:21:21.797Z,4.90
2022-10-05T00:24:12.043Z,4.90
2022-10-05T00:27:02.307Z,4.90
2022-10-05T00:29:51.966Z,5.00
2022-10-05T00:32:41.025Z,5.00
2022-10-05T00:35:30.910Z,5.00
2022-10-05T00:38:18.618Z,5.10
2022-10-05T00:41:10.535Z,5.10
2022-10-05T00:44:29.103Z,5.20
2022-10-05T00:47:33.216Z,5.20
2022-10-05T00:50:58.270Z,5.20
2022-10-05T00:53:58.565Z,5.20
2022-10-05T00:57:09.552Z,5.20
2022-10-05T01:00:06.608Z,5.30
2022-10-05T01:03:00.586Z,5.30
2022-10-05T01:06:03.256Z,5.20
2022-10-05T01:08:59.604Z,5.20
2022-10-05T01:11:55.250Z,5.20
2022-10-05T01:14:51.537Z,5.10
2022-10-05T01:17:48.419Z,5.10
2022-10-05T01:20:49.549Z,5.10
2022-10-05T01:24:09.600Z,5.10
2022-10-05T01:27:16.771Z,5.10
2022-10-05T01:30:10.032Z,5.10
2022-10-05T01:33:04.855Z,5.00
2022-10-05T01:36:00.142Z,5.00
2022-10-05T01:38:55.216Z,5.10
2022-10-05T01:41:48.201Z,5.10
2022-10-05T01:44:42.380Z,5.10
2022-10-05T01:47:39.966Z,5.10
2022-10-05T01:50:38.185Z,5.10
2022-10-05T01:53:35.845Z,5.00
2022-10-05T01:56:31.734Z,5.00
2022-10-05T01:59:32.384Z,5.00
2022-10-05T02:02:24.220Z,5.00
2022-10-05T02:05:17.769Z,4.90
2022-10-05T02:08:11.112Z,4.90
2022-10-05T02:11:03.197Z,4.80
2022-10-05T02:13:57.115Z,4.80
2022-10-05T02:16:48.842Z,4.80
2022-10-05T02:19:40.439Z,4.80
2022-10-05T02:22:32.415Z,4.80
2022-10-05T02:25:23.112Z,4.80
2022-10-05T02:28:16.685Z,4.80
2022-10-05T02:31:10.522Z,4.80
2022-10-05T02:34:33.818Z,4.70
2022-10-05T02:37:54.323Z,4.70
2022-10-05T02:40:53.787Z,4.70
2022-10-05T02:43:48.104Z,4.70
2022-10-05T02:46:41.763Z,4.70
2022-10-05T02:49:39.915Z,4.70
2022-10-05T02:52:34.105Z,4.70
2022-10-05T02:55:29.896Z,4.70
2022-10-05T02:58:20.594Z,4.70
2022-10-05T03:01:16.802Z,4.70
2022-10-05T03:04:15.640Z,4.70
2022-10-05T03:07:12.086Z,4.60
2022-10-05T03:10:07.626Z,4.60
2022-10-05T03:13:04.455Z,4.60
2022-10-05T03:16:20.575Z,4.60
2022-10-05T03:19:23.154Z,4.60
2022-10-05T03:22:20.702Z,4.60
2022-10-05T03:25:57.986Z,4.60
2022-10-05T03:28:59.139Z,4.60
2022-10-05T03:31:54.841Z,4.70
2022-10-05T03:34:48.812Z,4.70
2022-10-05T03:37:49.129Z,4.70
2022-10-05T03:40:40.824Z,4.90
2022-10-05T03:43:55.941Z,5.00
2022-10-05T03:47:02.407Z,5.10
2022-10-05T03:50:04.157Z,5.20
2022-10-05T03:52:57.768Z,5.20
2022-10-05T03:55:50.819Z,5.30
2022-10-05T03:58:43.824Z,5.30
2022-10-05T04:01:40.616Z,5.40
2022-10-05T04:04:35.141Z,5.40
2022-10-05T04:07:28.854Z,5.50
2022-10-05T04:10:19.085Z,5.50
2022-10-05T04:13:16.097Z,5.50
2022-10-05T04:16:08.216Z,5.50
2022-10-05T04:19:02.491Z,5.50
2022-10-05T04:21:54.355Z,5.50
2022-10-05T04:24:46.848Z,5.60
2022-10-05T04:27:39.323Z,5.60
2022-10-05T04:30:28.053Z,5.60
2022-10-05T04:33:17.725Z,5.60
2022-10-05T04:36:20.056Z,5.70
2022-10-05T04:39:22.603Z,5.70
2022-10-05T04:42:18.242Z,5.70
2022-10-05T04:45:14.960Z,5.70
2022-10-05T04:48:19.251Z,5.70
2022-10-05T04:51:23.874Z,5.70
2022-10-05T04:54:23.506Z,5.80
2022-10-05T04:57:16.230Z,5.90
2022-10-05T05:00:19.477Z,6.10
2022-10-05T05:03:40.052Z,6.20
2022-10-05T05:06:36.226Z,6.30
2022-10-05T05:09:51.057Z,6.40
2022-10-05T05:12:51.040Z,6.50
2022-10-05T05:15:51.000Z,6.60
2022-10-05T05:19:02.804Z,6.60
2022-10-05T05:22:01.301Z,6.60
2022-10-05T05:25:00.653Z,6.60
2022-10-05T05:27:50.023Z,6.60
2022-10-05T05:30:42.594Z,6.60
2022-10-05T05:33:35.204Z,6.60
2022-10-05T05:36:37.548Z,6.60
2022-10-05T05:39:28.832Z,6.60
2022-10-05T05:42:23.588Z,6.60
2022-10-05T05:45:17.749Z,6.60
2022-10-05T05:48:10.194Z,6.50
2022-10-05T05:50:59.512Z,6.50
2022-10-05T05:53:49.070Z,6.40
2022-10-05T05:56:41.528Z,6.40
2022-10-05T05:59:33.600Z,6.40
2022-10-05T06:02:22.923Z,6.40
2022-10-05T06:05:18.200Z,6.40
2022-10-05T06:08:10.121Z,6.40
2022-10-05T06:10:59.744Z,6.50
2022-10-05T06:13:49.089Z,6.60
2022-10-05T06:16:38.556Z,6.80
2022-10-05T06:19:28.262Z,7.00
2022-10-05T06:22:22.406Z,7.20
2022-10-05T06:25:26.947Z,7.40
2022-10-05T06:28:17.213Z,7.70
2022-10-05T06:31:31.012Z,7.90
2022-10-05T06:34:32.185Z,8.20
2022-10-05T06:37:30.596Z,8.40
2022-10-05T06:40:30.796Z,8.60
2022-10-05T06:43:39.832Z,8.80
2022-10-05T06:47:01.297Z,9.00
2022-10-05T06:50:22.785Z,9.20
2022-10-05T06:53:44.739Z,9.40
2022-10-05T06:56:40.258Z,9.60
2022-10-05T06:59:37.298Z,9.90
2022-10-05T07:02:36.542Z,10.10
2022-10-05T07:05:46.437Z,10.30
2022-10-05T07:08:48.133Z,10.50
2022-10-05T07:11:57.244Z,10.70
2022-10-05T07:15:02.384Z,10.90
2022-10-05T07:18:05.130Z,11.00
2022-10-05T07:21:00.408Z,11.20
2022-10-05T07:23:58.881Z,11.30
2022-10-05T07:26:51.702Z,11.50
2022-10-05T07:29:50.523Z,11.60
2022-10-05T07:32:50.350Z,11.70
2022-10-05T07:36:07.225Z,11.70
2022-10-05T07:39:03.654Z,11.80
2022-10-05T07:42:01.165Z,11.90
2022-10-05T07:44:54.285Z,12.10
2022-10-05T07:47:48.508Z,12.40
2022-10-05T07:50:42.299Z,12.60
2022-10-05T07:53:37.759Z,12.80
2022-10-05T07:56:35.243Z,12.90
2022-10-05T07:59:32.813Z,13.10
2022-10-05T08:02:28.502Z,13.20
2022-10-05T08:05:23.155Z,13.30
2022-10-05T08:08:20.483Z,13.50
2022-10-05T08:11:17.198Z,13.60
2022-10-05T08:14:16.726Z,13.70
2022-10-05T08:17:12.587Z,13.90
2022-10-05T08:20:11.351Z,14.00
2022-10-05T08:23:04.863Z,14.10
2022-10-05T08:26:07.898Z,14.20
2022-10-05T08:29:10.255Z,14.30
2022-10-05T08:32:05.180Z,14.40
2022-10-05T08:34:59.296Z,14.60
2022-10-05T08:37:48.493Z,14.80
2022-10-05T08:41:17.638Z,15.00
2022-10-05T08:44:38.811Z,15.20
2022-10-05T08:47:49.634Z,15.40
2022-10-05T08:51:16.806Z,15.80
2022-10-05T08:54:16.925Z,16.10
2022-10-05T08:57:31.175Z,16.40
2022-10-05T09:00:20.112Z,16.70
2022-10-05T09:03:25.105Z,17.00
2022-10-05T09:06:27.127Z,17.20
2022-10-05T09:09:32.308Z,17.30
2022-10-05T09:12:26.920Z,17.50
2022-10-05T09:15:34.133Z,17.70
2022-10-05T09:18:46.450Z,17.80
2022-10-05T09:21:42.981Z,18.10
2022-10-05T09:24:50.129Z,18.20
2022-10-05T09:27:39.311Z,18.20
2022-10-05T09:30:37.841Z,18.40
2022-10-05T09:33:59.524Z,18.40
2022-10-05T09:37:30.689Z,18.40
2022-10-05T09:40:48.617Z,18.50
2022-10-05T09:44:18.828Z,18.50
2022-10-05T09:47:41.480Z,18.60
2022-10-05T09:50:58.594Z,18.60
2022-10-05T09:54:21.506Z,18.60
2022-10-05T09:57:29.343Z,18.70
2022-10-05T10:00:23.580Z,18.70
2022-10-05T10:03:48.077Z,18.80
2022-10-05T10:07:13.820Z,18.90
2022-10-05T10:10:37.355Z,19.00
2022-10-05T10:14:00.156Z,19.10
2022-10-05T10:17:12.739Z,19.20
2022-10-05T10:20:16.914Z,19.30
2022-10-05T10:23:20.540Z,19.40
2022-10-05T10:26:44.319Z,19.40
2022-10-05T10:29:55.484Z,19.60
2022-10-05T10:33:34.093Z,19.70
2022-10-05T10:36:29.938Z,20.00
2022-10-05T10:39:27.207Z,20.20
2022-10-05T10:42:33.572Z,20.40
2022-10-05T10:45:38.780Z,20.50
2022-10-05T10:49:07.276Z,20.40
2022-10-05T10:52:12.919Z,20.40
2022-10-05T10:55:20.115Z,20.40
2022-10-05T10:58:38.401Z,20.60
2022-10-05T11:01:34.026Z,20.70
2022-10-05T11:04:50.468Z,21.10
2022-10-05T11:07:55.194Z,21.40
2022-10-05T11:11:14.288Z,21.80
2022-10-05T11:14:23.248Z,22.10
2022-10-05T11:17:52.943Z,22.30
2022-10-05T11:21:08.301Z,22.30
2022-10-05T11:24:22.432Z,22.20
2022-10-05T11:27:42.841Z,21.90
2022-10-05T11:31:06.576Z,21.60
2022-10-05T11:34:33.825Z,21.50
2022-10-05T11:37:56.287Z,21.90
2022-10-05T11:41:29.450Z,22.30
2022-10-05T11:45:03.242Z,22.70
2022-10-05T11:48:25.960Z,22.90
2022-10-05T11:51:30.828Z,23.00
2022-10-05T11:55:12.102Z,22.90
2022-10-05T11:58:02.822Z,22.70
2022-10-05T12:00:57.592Z,22.90
2022-10-05T12:03:59.564Z,23.10
2022-10-05T12:07:04.007Z,23.40
2022-10-05T12:10:20.168Z,23.90
2022-10-05T12:13:22.629Z,24.20
2022-10-05T12:16:18.699Z,24.30
2022-10-05T12:19:15.396Z,24.20
2022-10-05T12:22:10.803Z,24.10
2022-10-05T12:27:55.244Z,24.10
2022-10-05T12:31:18.182Z,23.50
2022-10-05T12:34:16.520Z,23.20
2022-10-05T12:37:13.987Z,23.00
2022-10-05T12:40:07.313Z,22.90
2022-10-05T12:43:05.518Z,23.20
2022-10-05T12:46:05.633Z,23.60
2022-10-05T12:49:29.550Z,23.80
2022-10-05T12:52:38.488Z,23.80
2022-10-05T12:55:31.513Z,23.80
2022-10-05T12:58:30.021Z,24.10
2022-10-05T13:01:29.495Z,24.30
2022-10-05T13:04:28.755Z,24.40
2022-10-05T13:07:42.757Z,24.60
2022-10-05T13:10:36.628Z,25.00
2022-10-05T13:13:49.145Z,25.30
2022-10-05T13:16:46.213Z,25.60
2022-10-05T13:19:40.680Z,25.70
2022-10-05T13:22:36.358Z,25.80
2022-10-05T13:25:30.060Z,25.60
2022-10-05T13:28:23.781Z,25.50
2022-10-05T13:31:19.718Z,25.20
2022-10-05T13:34:19.000Z,24.90
2022-10-05T13:37:19.150Z,24.70
2022-10-05T13:40:18.941Z,24.40
2022-10-05T13:43:17.653Z,24.10
2022-10-05T13:46:12.820Z,23.70
2022-10-05T13:49:15.772Z,23.30
2022-10-05T13:52:17.700Z,23.00
2022-10-05T13:55:15.960Z,22.80
2022-10-05T13:58:09.742Z,22.60
2022-10-05T14:01:01.116Z,22.40
2022-10-05T14:04:14.755Z,22.20
2022-10-05T14:07:21.777Z,22.30
2022-10-05T14:10:18.472Z,22.50
2022-10-05T14:13:26.751Z,22.70
2022-10-05T14:16:22.347Z,22.80
2022-10-05T14:19:22.888Z,22.80
2022-10-05T14:22:14.070Z,22.90
2022-10-05T14:25:17.155Z,23.10
2022-10-05T14:28:24.209Z,23.10
2022-10-05T14:31:16.653Z,23.00
2022-10-05T14:34:35.203Z,23.10
2022-10-05T14:37:25.274Z,23.10
2022-10-05T14:40:29.929Z,23.00
2022-10-05T14:43:22.024Z,22.80
2022-10-05T14:46:27.786Z,22.40
2022-10-05T14:49:22.443Z,22.20
2022-10-05T14:52:32.740Z,22.00
2022-10-05T14:55:57.373Z,21.70
2022-10-05T14:59:00.839Z,21.50
2022-10-05T15:01:56.321Z,21.30
2022-10-05T15:04:50.026Z,21.30
2022-10-05T15:07:43.933Z,21.30
2022-10-05T15:10:37.604Z,21.20
2022-10-05T15:13:31.120Z,20.90
2022-10-05T15:16:20.846Z,20.70
2022-10-05T15:19:18.321Z,20.60
2022-10-05T15:22:29.669Z,20.40
2022-10-05T15:25:27.045Z,20.20
2022-10-05T15:28:24.674Z,20.20
2022-10-05T15:31:23.779Z,20.10
2022-10-05T15:34:17.643Z,19.90
2022-10-05T15:37:11.192Z,19.80
2022-10-05T15:40:01.102Z,19.60
2022-10-05T15:42:56.376Z,19.50
2022-10-05T15:45:53.606Z,19.20
2022-10-05T15:48:51.298Z,19.10
2022-10-05T15:51:50.874Z,18.90
2022-10-05T15:55:21.052Z,18.70
2022-10-05T15:58:24.602Z,18.40
2022-10-05T16:01:16.728Z,18.30
2022-10-05T16:04:14.443Z,18.10
2022-10-05T16:07:21.263Z,17.90
2022-10-05T16:10:16.731Z,17.70
2022-10-05T16:13:19.209Z,17.50
2022-10-05T16:16:22.126Z,17.40
2022-10-05T16:19:17.521Z,17.10
2022-10-05T16:22:16.458Z,16.90
2022-10-05T16:25:12.510Z,16.70
2022-10-05T16:28:10.530Z,16.50
2022-10-05T16:31:04.349Z,16.20
2022-10-05T16:34:09.513Z,16.00
2022-10-05T16:37:04.652Z,15.80
2022-10-05T16:39:59.914Z,15.60
2022-10-05T16:42:58.211Z,15.40
2022-10-05T16:45:56.451Z,15.30
2022-10-05T16:48:57.488Z,15.10
2022-10-05T16:51:55.154Z,14.90
2022-10-05T16:54:48.099Z,14.80
2022-10-05T16:57:38.816Z,14.60
2022-10-05T17:00:31.908Z,14.50
2022-10-05T17:03:39.061Z,14.40
2022-10-05T17:06:38.128Z,14.30
2022-10-05T17:09:52.312Z,14.20
2022-10-05T17:12:51.832Z,14.10
2022-10-05T17:15:54.324Z,14.00
2022-10-05T17:19:33.508Z,13.90
2022-10-05T17:22:30.038Z,13.90
2022-10-05T17:25:26.092Z,14.00
2022-10-05T17:28:23.369Z,13.90
2022-10-05T17:31:17.839Z,13.90
2022-10-05T17:34:27.385Z,13.90
2022-10-05T17:37:35.225Z,13.90
2022-10-05T17:40:37.249Z,13.80
2022-10-05T17:43:27.267Z,13.70
2022-10-05T17:46:39.381Z,13.70
2022-10-05T17:50:09.065Z,13.70
2022-10-05T17:53:37.723Z,13.60
2022-10-05T17:56:27.154Z,13.50
2022-10-05T17:59:39.307Z,13.40
2022-10-05T18:02:42.824Z,13.30
2022-10-05T18:05:31.265Z,13.20
2022-10-05T18:08:31.781Z,13.20
2022-10-05T18:14:21.070Z,13.10
2022-10-05T18:17:13.321Z,13.00
2022-10-05T18:20:30.156Z,12.90
2022-10-05T18:23:35.553Z,12.90
2022-10-05T18:26:33.616Z,12.80
2022-10-05T18:29:55.098Z,12.80
2022-10-05T18:33:07.718Z,12.80
2022-10-05T18:36:04.008Z,12.70
2022-10-05T18:39:02.431Z,12.60
2022-10-05T18:42:07.159Z,12.50
2022-10-05T18:44:58.415Z,12.30
2022-10-05T18:47:48.888Z,12.20
2022-10-05T18:50:40.284Z,12.00
2022-10-05T18:53:36.413Z,11.90
2022-10-05T18:56:27.148Z,11.80
2022-10-05T18:59:24.243Z,11.60
2022-10-05T19:02:19.014Z,11.50
2022-10-05T19:05:29.283Z,11.40
2022-10-05T19:08:29.416Z,11.30
2022-10-05T19:11:24.804Z,11.20
2022-10-05T19:14:24.257Z,11.00
2022-10-05T19:17:25.387Z,10.90
2022-10-05T19:20:18.096Z,10.90
2022-10-05T19:23:23.482Z,10.70
2022-10-05T19:26:14.932Z,10.70
2022-10-05T19:29:07.777Z,10.60
2022-10-05T19:31:57.663Z,10.60
2022-10-05T19:34:53.019Z,10.50
2022-10-05T19:37:50.051Z,10.40
2022-10-05T19:40:44.084Z,10.30
2022-10-05T19:43:51.523Z,10.30
2022-10-05T19:46:55.134Z,10.20
2022-10-05T19:49:50.806Z,10.20
2022-10-05T19:52:48.971Z,10.10
2022-10-05T19:55:41.716Z,10.10
2022-10-05T19:58:33.281Z,10.10
2022-10-05T20:01:25.904Z,10.10
2022-10-05T20:04:13.425Z,10.00
2022-10-05T20:07:03.513Z,10.00
2022-10-05T20:09:55.250Z,9.90
2022-10-05T20:12:50.786Z,9.90
2022-10-05T20:15:56.249Z,9.80
2022-10-05T20:19:07.934Z,9.80
2022-10-05T20:21:59.846Z,9.70
2022-10-05T20:24:53.022Z,9.60
2022-10-05T20:27:49.431Z,9.60
2022-10-05T20:30:37.199Z,9.60
2022-10-05T20:33:27.369Z,9.50
2022-10-05T20:36:15.303Z,9.50
2022-10-05T20:39:03.469Z,9.40
2022-10-05T20:41:52.325Z,9.40
2022-10-05T20:44:39.903Z,9.30
2022-10-05T20:47:27.745Z,9.20
2022-10-05T20:50:15.717Z,9.20
2022-10-05T20:53:03.112Z,9.10
2022-10-05T20:55:50.833Z,9.10
2022-10-05T20:58:39.445Z,9.00
2022-10-05T21:01:28.947Z,9.00
2022-10-05T21:04:16.615Z,8.90
2022-10-05T21:07:05.523Z,8.90
2022-10-05T21:09:53.891Z,8.90
2022-10-05T21:12:41.252Z,8.80
2022-10-05T21:15:30.207Z,8.70
2022-10-05T21:18:17.689Z,8.70
2022-10-05T21:21:05.366Z,8.60
2022-10-05T21:23:52.755Z,8.60
2022-10-05T21:26:41.573Z,8.50
2022-10-05T21:29:29.662Z,8.50
2022-10-05T21:32:18.657Z,8.40
2022-10-05T21:35:06.976Z,8.40
2022-10-05T21:37:54.574Z,8.40
2022-10-05T21:40:43.477Z,8.30
2022-10-05T21:43:31.829Z,8.30
2022-10-05T21:46:22.870Z,8.20
2022-10-05T21:49:14.171Z,8.20
2022-10-05T21:52:05.823Z,8.20
2022-10-05T21:54:53.407Z,8.10
2022-10-05T21:57:41.577Z,8.10
2022-10-05T22:00:29.509Z,8.00
2022-10-05T22:03:17.608Z,8.00
2022-10-05T22:06:07.836Z,8.00
2022-10-05T22:08:56.357Z,7.90
2022-10-05T22:11:47.136Z,7.90
2022-10-05T22:14:34.875Z,7.90
2022-10-05T22:17:25.048Z,7.80
2022-10-05T22:20:14.592Z,7.80
2022-10-05T22:23:03.765Z,7.80
2022-10-05T22:25:51.797Z,7.70
2022-10-05T22:28:40.932Z,7.70
2022-10-05T22:31:28.561Z,7.60
2022-10-05T22:34:16.125Z,7.60
2022-10-05T22:37:05.728Z,7.60
2022-10-05T22:39:55.995Z,7.60
2022-10-05T22:42:43.774Z,7.60
2022-10-05T22:45:32.768Z,7.50
2022-10-05T22:48:20.626Z,7.50
2022-10-05T22:51:09.453Z,7.50
2022-10-05T22:53:57.109Z,7.50
2022-10-05T22:56:46.293Z,7.50
2022-10-05T22:59:34.143Z,7.40
2022-10-05T23:02:22.054Z,7.40
2022-10-05T23:05:13.258Z,7.40
2022-10-05T23:08:03.311Z,7.40
2022-10-05T23:10:51.171Z,7.40
2022-10-05T23:13:40.456Z,7.30
2022-10-05T23:16:29.865Z,7.30
2022-10-05T23:19:18.056Z,7.30
2022-10-05T23:22:05.682Z,7.30
2022-10-05T23:24:54.262Z,7.30
2022-10-05T23:27:43.926Z,7.30
2022-10-05T23:30:33.166Z,7.30
2022-10-05T23:33:21.157Z,7.30
2022-10-05T23:36:10.555Z,7.40
2022-10-05T23:38:58.088Z,7.40
2022-10-05T23:41:46.435Z,7.40
2022-10-05T23:44:33.948Z,7.40
2022-10-05T23:47:23.049Z,7.40
2022-10-05T23:50:11.375Z,7.40
2022-10-05T23:52:59.155Z,7.40
2022-10-05T23:55:47.377Z,7.40
2022-10-05T23:58:34.888Z,7.40
